AFR306 LFBO-LFKJ
Flight info
| Callsign | AFR306 |
|---|---|
| Flight time | 0h 57m |
| Altitude | 33000 |
| Route | AMOLO DCT DEGOL DCT FJR DCT AMFAC DCT RUBAS |
| Aircraft | A321/M-SDE3FGHIRWY/LB1 |
Departure
| Time | 2026-04-10 11:25 |
|---|---|
| Airport | Toulouse-Blagnac Airport (LFBO) |
Arrival
| Time | 2026-04-10 12:22 |
|---|---|
| Airport | Ajaccio Napoléon Bonaparte airport (LFKJ) |
| Time | Latitude | Longitude | Altitude | Speed | Heading |
|---|---|---|---|---|---|
| 2026-04-10 11:01 | 43.62983 | 1.37320 | 490 ft | 0 kts | 45° |
| 2026-04-10 11:17 | 43.62974 | 1.37306 | 485 ft | 3 kts | 51° |
| 2026-04-10 11:17 | 43.62962 | 1.37284 | 493 ft | 3 kts | 62° |
| 2026-04-10 11:18 | 43.62954 | 1.37258 | 486 ft | 3 kts | 75° |
| 2026-04-10 11:18 | 43.62951 | 1.37232 | 489 ft | 3 kts | 91° |
| 2026-04-10 11:18 | 43.62953 | 1.37205 | 485 ft | 3 kts | 116° |
| 2026-04-10 11:18 | 43.62961 | 1.37188 | 487 ft | 1 kts | 141° |
| 2026-04-10 11:19 | 43.62962 | 1.37187 | 485 ft | 0 kts | 142° |
| 2026-04-10 11:20 | 43.62961 | 1.37188 | 487 ft | 2 kts | 142° |
| 2026-04-10 11:20 | 43.62925 | 1.37227 | 488 ft | 12 kts | 142° |
| 2026-04-10 11:21 | 43.62833 | 1.37323 | 488 ft | 20 kts | 143° |
| 2026-04-10 11:21 | 43.62726 | 1.37434 | 488 ft | 19 kts | 142° |
| 2026-04-10 11:21 | 43.62629 | 1.37455 | 492 ft | 14 kts | 216° |
| 2026-04-10 11:21 | 43.62565 | 1.37351 | 487 ft | 14 kts | 221° |
| 2026-04-10 11:22 | 43.62481 | 1.37379 | 492 ft | 15 kts | 143° |
| 2026-04-10 11:22 | 43.62380 | 1.37486 | 490 ft | 18 kts | 143° |
| 2026-04-10 11:22 | 43.62280 | 1.37589 | 491 ft | 17 kts | 143° |
| 2026-04-10 11:22 | 43.62178 | 1.37659 | 494 ft | 16 kts | 187° |
| 2026-04-10 11:23 | 43.62101 | 1.37564 | 490 ft | 15 kts | 231° |
| 2026-04-10 11:23 | 43.62023 | 1.37418 | 494 ft | 21 kts | 233° |
| 2026-04-10 11:23 | 43.61942 | 1.37271 | 490 ft | 15 kts | 236° |
| 2026-04-10 11:23 | 43.61959 | 1.37145 | 490 ft | 14 kts | 320° |
| 2026-04-10 11:24 | 43.62048 | 1.37053 | 487 ft | 27 kts | 323° |
| 2026-04-10 11:24 | 43.62396 | 1.36692 | 488 ft | 95 kts | 323° |
| 2026-04-10 11:24 | 43.63075 | 1.35984 | 489 ft | 147 kts | 323° |
| 2026-04-10 11:24 | 43.63977 | 1.35056 | 750 ft | 167 kts | 324° |
| 2026-04-10 11:25 | 43.64909 | 1.34099 | 1380 ft | 168 kts | 324° |
| 2026-04-10 11:25 | 43.65891 | 1.33129 | 1793 ft | 182 kts | 325° |
| 2026-04-10 11:25 | 43.66617 | 1.32422 | 1960 ft | 196 kts | 325° |
| 2026-04-10 11:25 | 43.67787 | 1.31286 | 2181 ft | 216 kts | 325° |
| 2026-04-10 11:26 | 43.69177 | 1.30235 | 2340 ft | 243 kts | 348° |
| 2026-04-10 11:26 | 43.70870 | 1.30462 | 2756 ft | 259 kts | 25° |
| 2026-04-10 11:26 | 43.72231 | 1.32101 | 3439 ft | 265 kts | 54° |
| 2026-04-10 11:26 | 43.73167 | 1.34320 | 4200 ft | 270 kts | 63° |
| 2026-04-10 11:27 | 43.73983 | 1.36688 | 4969 ft | 275 kts | 64° |
| 2026-04-10 11:27 | 43.74823 | 1.39080 | 5712 ft | 279 kts | 62° |
| 2026-04-10 11:27 | 43.75740 | 1.41466 | 6441 ft | 283 kts | 59° |
| 2026-04-10 11:27 | 43.76740 | 1.43841 | 7125 ft | 287 kts | 57° |
| 2026-04-10 11:28 | 43.77802 | 1.46205 | 7820 ft | 291 kts | 56° |
| 2026-04-10 11:28 | 43.78906 | 1.48571 | 8521 ft | 294 kts | 55° |
| 2026-04-10 11:28 | 43.80037 | 1.50947 | 9223 ft | 297 kts | 55° |
| 2026-04-10 11:28 | 43.81188 | 1.53348 | 9938 ft | 301 kts | 55° |
| 2026-04-10 11:29 | 43.82170 | 1.55931 | 10546 ft | 308 kts | 68° |
| 2026-04-10 11:29 | 43.82853 | 1.58846 | 10734 ft | 330 kts | 72° |
| 2026-04-10 11:29 | 43.83539 | 1.61985 | 10860 ft | 351 kts | 72° |
| 2026-04-10 11:29 | 43.84251 | 1.65300 | 11175 ft | 365 kts | 73° |
| 2026-04-10 11:30 | 43.84976 | 1.68693 | 11742 ft | 370 kts | 73° |
| 2026-04-10 11:30 | 43.85709 | 1.72125 | 12351 ft | 374 kts | 73° |
| 2026-04-10 11:30 | 43.86451 | 1.75592 | 12969 ft | 377 kts | 73° |
| 2026-04-10 11:30 | 43.87204 | 1.79095 | 13581 ft | 381 kts | 73° |
| 2026-04-10 11:31 | 43.87965 | 1.82627 | 14158 ft | 385 kts | 73° |
| 2026-04-10 11:31 | 43.88735 | 1.86193 | 14698 ft | 388 kts | 73° |
| 2026-04-10 11:31 | 43.89512 | 1.89790 | 15228 ft | 391 kts | 73° |
| 2026-04-10 11:31 | 43.90294 | 1.93420 | 15761 ft | 394 kts | 72° |
| 2026-04-10 11:32 | 43.91076 | 1.97072 | 16285 ft | 397 kts | 73° |
| 2026-04-10 11:32 | 43.91591 | 2.00846 | 16782 ft | 401 kts | 85° |
| 2026-04-10 11:32 | 43.91596 | 2.04721 | 17285 ft | 404 kts | 96° |
| 2026-04-10 11:32 | 43.91106 | 2.08560 | 17785 ft | 406 kts | 104° |
| 2026-04-10 11:33 | 43.90469 | 2.12338 | 18272 ft | 409 kts | 103° |
| 2026-04-10 11:33 | 43.89824 | 2.16192 | 18720 ft | 412 kts | 103° |
| 2026-04-10 11:33 | 43.89176 | 2.20068 | 19122 ft | 414 kts | 103° |
| 2026-04-10 11:33 | 43.88524 | 2.23972 | 19516 ft | 417 kts | 103° |
| 2026-04-10 11:34 | 43.87867 | 2.27899 | 19905 ft | 419 kts | 103° |
| 2026-04-10 11:34 | 43.87204 | 2.31843 | 20284 ft | 422 kts | 103° |
| 2026-04-10 11:34 | 43.86535 | 2.35814 | 20679 ft | 424 kts | 103° |
| 2026-04-10 11:34 | 43.85863 | 2.39805 | 21052 ft | 427 kts | 102° |
| 2026-04-10 11:35 | 43.85185 | 2.43820 | 21438 ft | 429 kts | 102° |
| 2026-04-10 11:35 | 43.84500 | 2.47861 | 21816 ft | 432 kts | 102° |
| 2026-04-10 11:35 | 43.83807 | 2.51924 | 22210 ft | 434 kts | 102° |
| 2026-04-10 11:35 | 43.83109 | 2.56007 | 22600 ft | 437 kts | 102° |
| 2026-04-10 11:36 | 43.82408 | 2.60118 | 22968 ft | 440 kts | 102° |
| 2026-04-10 11:36 | 43.81700 | 2.64250 | 23353 ft | 443 kts | 102° |
| 2026-04-10 11:36 | 43.80986 | 2.68406 | 23745 ft | 445 kts | 102° |
| 2026-04-10 11:36 | 43.80259 | 2.72592 | 24058 ft | 448 kts | 102° |
| 2026-04-10 11:37 | 43.79523 | 2.76794 | 24389 ft | 450 kts | 102° |
| 2026-04-10 11:37 | 43.78784 | 2.81008 | 24765 ft | 451 kts | 102° |
| 2026-04-10 11:37 | 43.78046 | 2.85230 | 25106 ft | 453 kts | 102° |
| 2026-04-10 11:37 | 43.77309 | 2.89473 | 25442 ft | 455 kts | 102° |
| 2026-04-10 11:38 | 43.76567 | 2.93734 | 25746 ft | 457 kts | 103° |
| 2026-04-10 11:38 | 43.75818 | 2.98013 | 26067 ft | 459 kts | 103° |
| 2026-04-10 11:38 | 43.75061 | 3.02308 | 26398 ft | 461 kts | 103° |
| 2026-04-10 11:38 | 43.74298 | 3.06621 | 26712 ft | 463 kts | 103° |
| 2026-04-10 11:39 | 43.73531 | 3.10956 | 26987 ft | 466 kts | 103° |
| 2026-04-10 11:39 | 43.72760 | 3.15315 | 27302 ft | 468 kts | 103° |
| 2026-04-10 11:39 | 43.71984 | 3.19689 | 27621 ft | 470 kts | 103° |
| 2026-04-10 11:39 | 43.71201 | 3.24080 | 27924 ft | 472 kts | 103° |
| 2026-04-10 11:40 | 43.70412 | 3.28489 | 28238 ft | 474 kts | 103° |
| 2026-04-10 11:40 | 43.69618 | 3.32914 | 28539 ft | 476 kts | 103° |
| 2026-04-10 11:40 | 43.68818 | 3.37360 | 28829 ft | 477 kts | 103° |
| 2026-04-10 11:40 | 43.68015 | 3.41819 | 29098 ft | 479 kts | 103° |
| 2026-04-10 11:41 | 43.67209 | 3.46288 | 29353 ft | 481 kts | 103° |
| 2026-04-10 11:41 | 43.66398 | 3.50779 | 29598 ft | 483 kts | 104° |
| 2026-04-10 11:41 | 43.65580 | 3.55288 | 29818 ft | 484 kts | 104° |
| 2026-04-10 11:41 | 43.64759 | 3.59799 | 30094 ft | 485 kts | 104° |
| 2026-04-10 11:42 | 43.63951 | 3.64249 | 30382 ft | 484 kts | 104° |
| 2026-04-10 11:42 | 43.63134 | 3.68745 | 30683 ft | 482 kts | 103° |
| 2026-04-10 11:42 | 43.62316 | 3.73227 | 30986 ft | 481 kts | 103° |
| 2026-04-10 11:42 | 43.61493 | 3.77694 | 31299 ft | 479 kts | 103° |
| 2026-04-10 11:43 | 43.60658 | 3.82203 | 31607 ft | 478 kts | 103° |
| 2026-04-10 11:43 | 43.59848 | 3.86580 | 31901 ft | 477 kts | 103° |
| 2026-04-10 11:43 | 43.59024 | 3.91005 | 32197 ft | 476 kts | 104° |
| 2026-04-10 11:43 | 43.57907 | 3.95301 | 32490 ft | 476 kts | 114° |
| 2026-04-10 11:44 | 43.56330 | 3.99305 | 32781 ft | 476 kts | 123° |
| 2026-04-10 11:44 | 43.54335 | 4.02934 | 33011 ft | 476 kts | 130° |
| 2026-04-10 11:44 | 43.49998 | 4.09660 | 33058 ft | 465 kts | 131° |
| 2026-04-10 11:45 | 43.45706 | 4.16285 | 33060 ft | 463 kts | 131° |
| 2026-04-10 11:45 | 43.41420 | 4.22896 | 33063 ft | 463 kts | 130° |
| 2026-04-10 11:46 | 43.37132 | 4.29517 | 33063 ft | 464 kts | 131° |
| 2026-04-10 11:46 | 43.32837 | 4.36122 | 33053 ft | 463 kts | 130° |
| 2026-04-10 11:47 | 43.28539 | 4.42712 | 33050 ft | 463 kts | 131° |
| 2026-04-10 11:47 | 43.24241 | 4.49277 | 33055 ft | 462 kts | 131° |
| 2026-04-10 11:48 | 43.19943 | 4.55833 | 33054 ft | 462 kts | 131° |
| 2026-04-10 11:48 | 43.15643 | 4.62384 | 33051 ft | 462 kts | 130° |
| 2026-04-10 11:49 | 43.11341 | 4.68922 | 33039 ft | 462 kts | 130° |
| 2026-04-10 11:49 | 43.07035 | 4.75440 | 33049 ft | 461 kts | 130° |
| 2026-04-10 11:50 | 43.02730 | 4.81949 | 33054 ft | 461 kts | 130° |
| 2026-04-10 11:50 | 42.98433 | 4.88448 | 33052 ft | 461 kts | 130° |
| 2026-04-10 11:51 | 42.94129 | 4.94937 | 33054 ft | 461 kts | 130° |
| 2026-04-10 11:51 | 42.89820 | 5.01420 | 33051 ft | 461 kts | 130° |
| 2026-04-10 11:52 | 42.86303 | 5.08635 | 33047 ft | 456 kts | 112° |
| 2026-04-10 11:52 | 42.83783 | 5.16548 | 33047 ft | 455 kts | 111° |
| 2026-04-10 11:53 | 42.81244 | 5.24449 | 33045 ft | 455 kts | 111° |
| 2026-04-10 11:53 | 42.78696 | 5.32342 | 33044 ft | 455 kts | 111° |
| 2026-04-10 11:54 | 42.76154 | 5.40235 | 33049 ft | 455 kts | 111° |
| 2026-04-10 11:54 | 42.73624 | 5.48076 | 33048 ft | 456 kts | 111° |
| 2026-04-10 11:55 | 42.71051 | 5.56018 | 33048 ft | 456 kts | 111° |
| 2026-04-10 11:55 | 42.68489 | 5.63898 | 33051 ft | 456 kts | 111° |
| 2026-04-10 11:56 | 42.65921 | 5.71778 | 33059 ft | 456 kts | 111° |
| 2026-04-10 11:56 | 42.63364 | 5.79587 | 33058 ft | 456 kts | 111° |
| 2026-04-10 11:57 | 42.60787 | 5.87450 | 33049 ft | 456 kts | 111° |
| 2026-04-10 11:57 | 42.58204 | 5.95310 | 33050 ft | 456 kts | 111° |
| 2026-04-10 11:58 | 42.55618 | 6.03161 | 33053 ft | 456 kts | 111° |
| 2026-04-10 11:58 | 42.53017 | 6.11012 | 33070 ft | 457 kts | 111° |
| 2026-04-10 11:59 | 42.50411 | 6.18869 | 33067 ft | 457 kts | 111° |
| 2026-04-10 11:59 | 42.49107 | 6.22799 | 32911 ft | 458 kts | 111° |
| 2026-04-10 11:59 | 42.47798 | 6.26732 | 32636 ft | 458 kts | 111° |
| 2026-04-10 12:00 | 42.46487 | 6.30667 | 32374 ft | 459 kts | 111° |
| 2026-04-10 12:00 | 42.45170 | 6.34609 | 32121 ft | 460 kts | 112° |
| 2026-04-10 12:00 | 42.43849 | 6.38557 | 31860 ft | 461 kts | 112° |
| 2026-04-10 12:00 | 42.42525 | 6.42504 | 31590 ft | 461 kts | 112° |
| 2026-04-10 12:01 | 42.41199 | 6.46453 | 31349 ft | 461 kts | 112° |
| 2026-04-10 12:01 | 42.39868 | 6.50411 | 31112 ft | 462 kts | 112° |
| 2026-04-10 12:01 | 42.38537 | 6.54371 | 30867 ft | 463 kts | 112° |
| 2026-04-10 12:01 | 42.37225 | 6.58345 | 30492 ft | 461 kts | 111° |
| 2026-04-10 12:02 | 42.36037 | 6.62364 | 29844 ft | 459 kts | 108° |
| 2026-04-10 12:02 | 42.34964 | 6.66415 | 29255 ft | 455 kts | 107° |
| 2026-04-10 12:02 | 42.33962 | 6.70449 | 28663 ft | 451 kts | 106° |
| 2026-04-10 12:02 | 42.32983 | 6.74457 | 28101 ft | 447 kts | 106° |
| 2026-04-10 12:03 | 42.31997 | 6.78426 | 27533 ft | 444 kts | 107° |
| 2026-04-10 12:03 | 42.31009 | 6.82299 | 26989 ft | 440 kts | 107° |
| 2026-04-10 12:03 | 42.29993 | 6.86179 | 26433 ft | 437 kts | 107° |
| 2026-04-10 12:03 | 42.28964 | 6.90023 | 25886 ft | 434 kts | 108° |
| 2026-04-10 12:04 | 42.27917 | 6.93884 | 25339 ft | 430 kts | 108° |
| 2026-04-10 12:04 | 42.26907 | 6.97607 | 24818 ft | 427 kts | 108° |
| 2026-04-10 12:04 | 42.25897 | 7.01353 | 24297 ft | 423 kts | 107° |
| 2026-04-10 12:04 | 42.24902 | 7.05064 | 23793 ft | 418 kts | 107° |
| 2026-04-10 12:05 | 42.23917 | 7.08732 | 23264 ft | 413 kts | 108° |
| 2026-04-10 12:05 | 42.22932 | 7.12390 | 22789 ft | 406 kts | 108° |
| 2026-04-10 12:05 | 42.21975 | 7.15940 | 22334 ft | 399 kts | 108° |
| 2026-04-10 12:05 | 42.21049 | 7.19380 | 21918 ft | 393 kts | 108° |
| 2026-04-10 12:06 | 42.20121 | 7.22820 | 21497 ft | 387 kts | 108° |
| 2026-04-10 12:06 | 42.19207 | 7.26209 | 21085 ft | 383 kts | 108° |
| 2026-04-10 12:06 | 42.18301 | 7.29573 | 20675 ft | 380 kts | 108° |
| 2026-04-10 12:06 | 42.17398 | 7.32914 | 20255 ft | 378 kts | 109° |
| 2026-04-10 12:07 | 42.16498 | 7.36232 | 19835 ft | 375 kts | 109° |
| 2026-04-10 12:07 | 42.14716 | 7.42797 | 18989 ft | 371 kts | 109° |
| 2026-04-10 12:07 | 42.13831 | 7.46049 | 18565 ft | 369 kts | 109° |
| 2026-04-10 12:08 | 42.12952 | 7.49284 | 18094 ft | 367 kts | 109° |
| 2026-04-10 12:08 | 42.12077 | 7.52497 | 17653 ft | 364 kts | 110° |
| 2026-04-10 12:08 | 42.11205 | 7.55686 | 17233 ft | 362 kts | 110° |
| 2026-04-10 12:08 | 42.10336 | 7.58852 | 16800 ft | 359 kts | 110° |
| 2026-04-10 12:09 | 42.09472 | 7.61995 | 16362 ft | 357 kts | 110° |
| 2026-04-10 12:09 | 42.08614 | 7.65118 | 15939 ft | 354 kts | 110° |
| 2026-04-10 12:09 | 42.07760 | 7.68218 | 15518 ft | 352 kts | 110° |
| 2026-04-10 12:09 | 42.06912 | 7.71298 | 15098 ft | 350 kts | 110° |
| 2026-04-10 12:10 | 42.06069 | 7.74356 | 14676 ft | 348 kts | 110° |
| 2026-04-10 12:10 | 42.05233 | 7.77394 | 14258 ft | 345 kts | 110° |
| 2026-04-10 12:10 | 42.04399 | 7.80413 | 13842 ft | 343 kts | 110° |
| 2026-04-10 12:10 | 42.03570 | 7.83411 | 13395 ft | 341 kts | 110° |
| 2026-04-10 12:11 | 42.02746 | 7.86386 | 12970 ft | 339 kts | 110° |
| 2026-04-10 12:11 | 42.01925 | 7.89350 | 12551 ft | 337 kts | 110° |
| 2026-04-10 12:11 | 42.01107 | 7.92294 | 12127 ft | 335 kts | 110° |
| 2026-04-10 12:11 | 42.00566 | 7.94233 | 11847 ft | 334 kts | 110° |
| 2026-04-10 12:12 | 41.99752 | 7.97153 | 11430 ft | 333 kts | 110° |
| 2026-04-10 12:12 | 41.98943 | 8.00059 | 10997 ft | 331 kts | 110° |
| 2026-04-10 12:12 | 41.98276 | 8.03007 | 10576 ft | 328 kts | 100° |
| 2026-04-10 12:12 | 41.98042 | 8.05987 | 10416 ft | 315 kts | 89° |
| 2026-04-10 12:13 | 41.98041 | 8.08897 | 10131 ft | 309 kts | 89° |
| 2026-04-10 12:13 | 41.98034 | 8.11767 | 9945 ft | 306 kts | 89° |
| 2026-04-10 12:13 | 41.98021 | 8.14623 | 9815 ft | 306 kts | 89° |
| 2026-04-10 12:13 | 41.98003 | 8.17478 | 9685 ft | 305 kts | 89° |
| 2026-04-10 12:14 | 41.97985 | 8.20328 | 9397 ft | 304 kts | 89° |
| 2026-04-10 12:14 | 41.97968 | 8.23158 | 9020 ft | 302 kts | 89° |
| 2026-04-10 12:14 | 41.97950 | 8.25970 | 8631 ft | 300 kts | 89° |
| 2026-04-10 12:14 | 41.97932 | 8.28763 | 8248 ft | 298 kts | 89° |
| 2026-04-10 12:15 | 41.97914 | 8.31540 | 7868 ft | 296 kts | 89° |
| 2026-04-10 12:15 | 41.97896 | 8.34299 | 7492 ft | 294 kts | 89° |
| 2026-04-10 12:15 | 41.97880 | 8.37041 | 7118 ft | 292 kts | 89° |
| 2026-04-10 12:15 | 41.97865 | 8.39765 | 6744 ft | 291 kts | 89° |
| 2026-04-10 12:16 | 41.97846 | 8.42471 | 6375 ft | 289 kts | 89° |
| 2026-04-10 12:16 | 41.97827 | 8.45159 | 5981 ft | 287 kts | 89° |
| 2026-04-10 12:16 | 41.97809 | 8.47828 | 5611 ft | 285 kts | 89° |
| 2026-04-10 12:16 | 41.97795 | 8.50487 | 5251 ft | 283 kts | 86° |
| 2026-04-10 12:17 | 41.98025 | 8.53097 | 4862 ft | 280 kts | 79° |
| 2026-04-10 12:17 | 41.98355 | 8.55666 | 4496 ft | 277 kts | 74° |
| 2026-04-10 12:17 | 41.98934 | 8.58112 | 4144 ft | 273 kts | 70° |
| 2026-04-10 12:17 | 41.99520 | 8.60491 | 3797 ft | 269 kts | 70° |
| 2026-04-10 12:18 | 42.00109 | 8.62896 | 3449 ft | 266 kts | 71° |
| 2026-04-10 12:18 | 42.00612 | 8.65269 | 3106 ft | 262 kts | 81° |
| 2026-04-10 12:18 | 42.00633 | 8.67626 | 3002 ft | 251 kts | 98° |
| 2026-04-10 12:18 | 42.00341 | 8.69846 | 3029 ft | 230 kts | 101° |
| 2026-04-10 12:19 | 42.00073 | 8.71901 | 2988 ft | 208 kts | 100° |
| 2026-04-10 12:19 | 41.99852 | 8.73648 | 2970 ft | 179 kts | 101° |
| 2026-04-10 12:19 | 41.99642 | 8.75267 | 2606 ft | 172 kts | 102° |
| 2026-04-10 12:19 | 41.99438 | 8.76803 | 2336 ft | 164 kts | 103° |
| 2026-04-10 12:20 | 41.99238 | 8.78292 | 2036 ft | 161 kts | 102° |
| 2026-04-10 12:20 | 41.99041 | 8.79761 | 1770 ft | 161 kts | 100° |
| 2026-04-10 12:20 | 41.98757 | 8.81218 | 1467 ft | 161 kts | 120° |
| 2026-04-10 12:20 | 41.98043 | 8.82289 | 1284 ft | 154 kts | 153° |
| 2026-04-10 12:21 | 41.97059 | 8.82751 | 1044 ft | 150 kts | 180° |
| 2026-04-10 12:21 | 41.96053 | 8.82528 | 786 ft | 146 kts | 205° |
| 2026-04-10 12:21 | 41.95167 | 8.81964 | 609 ft | 140 kts | 207° |
| 2026-04-10 12:21 | 41.94300 | 8.81426 | 379 ft | 135 kts | 207° |
| 2026-04-10 12:22 | 41.93442 | 8.80904 | 156 ft | 136 kts | 207° |
| 2026-04-10 12:22 | 41.92597 | 8.80373 | 28 ft | 129 kts | 205° |
| 2026-04-10 12:22 | 41.91960 | 8.79975 | 20 ft | 73 kts | 204° |
| 2026-04-10 12:22 | 41.91653 | 8.79784 | 19 ft | 28 kts | 204° |
| 2026-04-10 12:23 | 41.91477 | 8.79674 | 18 ft | 28 kts | 206° |
| 2026-04-10 12:23 | 41.91307 | 8.79569 | 21 ft | 26 kts | 205° |
| 2026-04-10 12:23 | 41.91250 | 8.79459 | 19 ft | 14 kts | 288° |
| 2026-04-10 12:23 | 41.91320 | 8.79379 | 20 ft | 13 kts | 331° |
| 2026-04-10 12:24 | 41.91404 | 8.79336 | 20 ft | 13 kts | 349° |
| 2026-04-10 12:24 | 41.91494 | 8.79353 | 20 ft | 17 kts | 21° |
| 2026-04-10 12:24 | 41.91617 | 8.79430 | 21 ft | 20 kts | 25° |
| 2026-04-10 12:24 | 41.91739 | 8.79506 | 21 ft | 19 kts | 25° |
| 2026-04-10 12:25 | 41.91813 | 8.79515 | 21 ft | 8 kts | 356° |
| 2026-04-10 12:25 | 41.91847 | 8.79506 | 22 ft | 0 kts | 346° |